createdAt,value
2018-03-01T00:01:42.732Z,18.77
2018-03-01T00:04:09.798Z,15.63
2018-03-01T00:06:35.957Z,17.80
2018-03-01T00:09:02.122Z,20.53
2018-03-01T00:11:28.349Z,19.30
2018-03-01T00:13:54.702Z,14.33
2018-03-01T00:16:20.950Z,17.57
2018-03-01T00:18:47.096Z,18.23
2018-03-01T00:21:13.274Z,21.10
2018-03-01T00:23:39.488Z,18.67
2018-03-01T00:26:05.613Z,9.73
2018-03-01T00:28:31.884Z,17.63
2018-03-01T00:30:58.037Z,12.67
2018-03-01T00:33:24.292Z,12.20
2018-03-01T00:35:50.433Z,13.93
2018-03-01T00:38:16.619Z,15.87
2018-03-01T00:40:42.772Z,16.13
2018-03-01T00:43:09.050Z,10.10
2018-03-01T00:45:35.912Z,10.03
2018-03-01T00:48:02.130Z,16.20
2018-03-01T00:50:28.295Z,16.93
2018-03-01T00:52:54.481Z,11.23
2018-03-01T00:55:20.668Z,13.27
2018-03-01T00:57:46.865Z,10.47
2018-03-01T01:00:13.079Z,10.00
2018-03-01T01:02:39.281Z,16.30
2018-03-01T01:05:05.525Z,14.47
2018-03-01T01:07:31.705Z,16.10
2018-03-01T01:09:57.905Z,11.33
2018-03-01T01:12:24.100Z,18.53
2018-03-01T01:14:50.233Z,10.83
2018-03-01T01:17:16.485Z,14.90
2018-03-01T01:19:42.669Z,10.23
2018-03-01T01:22:08.862Z,11.67
2018-03-01T01:24:35.017Z,15.33
2018-03-01T01:27:01.209Z,12.40
2018-03-01T01:29:27.365Z,13.63
2018-03-01T01:31:53.553Z,9.07
2018-03-01T01:34:19.687Z,19.03
2018-03-01T01:36:45.849Z,33.30
2018-03-01T01:39:11.980Z,12.87
2018-03-01T01:41:38.127Z,5.47
2018-03-01T01:44:04.317Z,9.10
2018-03-01T01:46:30.473Z,11.37
2018-03-01T01:48:56.592Z,8.80
2018-03-01T01:51:22.765Z,11.93
2018-03-01T01:53:48.917Z,12.53
2018-03-01T01:56:15.049Z,16.70
2018-03-01T01:58:41.215Z,11.90
2018-03-01T02:01:07.377Z,19.13
2018-03-01T02:03:33.537Z,16.93
2018-03-01T02:06:00.433Z,17.43
2018-03-01T02:08:26.614Z,12.33
2018-03-01T02:10:52.751Z,9.60
2018-03-01T02:13:18.934Z,21.43
2018-03-01T02:15:45.061Z,14.83
2018-03-01T02:18:11.926Z,16.67
2018-03-01T02:20:38.084Z,19.20
2018-03-01T02:23:04.228Z,12.23
2018-03-01T02:25:30.349Z,16.13
2018-03-01T02:27:56.537Z,10.33
2018-03-01T02:30:26.538Z,16.00
2018-03-01T02:32:52.681Z,18.50
2018-03-01T02:35:18.911Z,13.20
2018-03-01T02:37:45.062Z,14.17
2018-03-01T02:40:11.212Z,14.07
2018-03-01T02:42:37.366Z,15.20
2018-03-01T02:45:03.510Z,7.50
2018-03-01T02:47:29.664Z,11.53
2018-03-01T02:49:56.667Z,10.27
2018-03-01T02:52:23.701Z,11.70
2018-03-01T02:54:49.857Z,14.60
2018-03-01T02:57:16.048Z,17.07
2018-03-01T02:59:42.184Z,11.37
2018-03-01T03:02:08.367Z,13.63
2018-03-01T03:04:34.569Z,35.43
2018-03-01T03:07:00.715Z,7.73
2018-03-01T03:09:26.924Z,12.53
2018-03-01T03:11:53.070Z,10.20
2018-03-01T03:14:19.219Z,13.40
2018-03-01T03:16:45.443Z,10.00
2018-03-01T03:19:11.576Z,13.23
2018-03-01T03:21:37.748Z,14.83
2018-03-01T03:24:03.890Z,11.33
2018-03-01T03:26:30.101Z,13.90
2018-03-01T03:28:56.767Z,14.37
2018-03-01T03:31:22.877Z,13.23
2018-03-01T03:33:49.037Z,13.03
2018-03-01T03:36:15.194Z,14.43
2018-03-01T03:38:41.370Z,11.97
2018-03-01T03:41:07.548Z,10.77
2018-03-01T03:43:33.696Z,9.80
2018-03-01T03:45:59.848Z,13.60
2018-03-01T03:48:26.041Z,14.40
2018-03-01T03:50:52.175Z,16.73
2018-03-01T03:53:18.303Z,15.37
2018-03-01T03:55:44.501Z,13.80
2018-03-01T03:58:10.624Z,13.93
2018-03-01T04:00:36.736Z,11.50
2018-03-01T04:03:02.948Z,12.47
2018-03-01T04:05:29.093Z,13.67
2018-03-01T04:07:55.204Z,12.80
2018-03-01T04:10:22.120Z,9.40
2018-03-01T04:12:48.253Z,8.23
2018-03-01T04:15:14.376Z,15.60
2018-03-01T04:17:40.585Z,15.17
2018-03-01T04:20:06.788Z,10.03
2018-03-01T04:22:32.923Z,9.00
2018-03-01T04:24:59.112Z,10.07
2018-03-01T04:27:25.256Z,12.70
2018-03-01T04:29:51.404Z,13.37
2018-03-01T04:32:17.612Z,16.70
2018-03-01T04:34:43.858Z,8.47
2018-03-01T04:37:10.014Z,14.33
2018-03-01T04:39:36.248Z,14.23
2018-03-01T04:42:02.347Z,11.07
2018-03-01T04:44:28.508Z,8.00
2018-03-01T04:46:55.455Z,14.70
2018-03-01T04:49:21.689Z,12.40
2018-03-01T04:51:47.827Z,14.57
2018-03-01T04:54:14.902Z,14.60
2018-03-01T04:56:41.058Z,21.97
2018-03-01T04:59:07.179Z,14.10
2018-03-01T05:01:33.297Z,18.20
2018-03-01T05:03:59.399Z,16.73
2018-03-01T05:06:25.516Z,16.00
2018-03-01T05:08:51.640Z,20.37
2018-03-01T05:11:18.472Z,13.50
2018-03-01T05:13:44.555Z,15.23
2018-03-01T05:16:10.704Z,10.57
2018-03-01T05:18:36.802Z,20.57
2018-03-01T05:21:02.953Z,19.00
2018-03-01T05:23:29.974Z,16.90
2018-03-01T05:25:56.100Z,13.23
2018-03-01T05:28:22.205Z,22.25
2018-03-01T05:30:48.386Z,9.97
2018-03-01T05:33:16.294Z,18.70
2018-03-01T05:35:44.167Z,14.57
2018-03-01T05:38:12.056Z,18.80
2018-03-01T05:40:39.894Z,16.37
2018-03-01T05:43:07.744Z,12.35
2018-03-01T05:45:35.622Z,16.50
2018-03-01T05:48:03.497Z,16.40
2018-03-01T05:50:31.341Z,23.63
2018-03-01T05:52:59.288Z,18.13
2018-03-01T05:55:27.175Z,12.33
2018-03-01T05:57:55.067Z,14.50
2018-03-01T06:00:23.002Z,10.20
2018-03-01T06:02:50.880Z,22.20
2018-03-01T06:05:18.743Z,12.95
2018-03-01T06:07:46.633Z,17.37
2018-03-01T06:10:14.493Z,13.20
2018-03-01T06:12:42.381Z,20.13
2018-03-01T06:15:10.265Z,18.80
2018-03-01T06:17:38.163Z,19.87
2018-03-01T06:20:06.021Z,18.97
2018-03-01T06:22:33.933Z,17.17
2018-03-01T06:25:01.814Z,16.40
2018-03-01T06:27:29.733Z,21.43
2018-03-01T06:29:57.656Z,16.87
2018-03-01T06:32:25.526Z,12.33
2018-03-01T06:34:53.428Z,10.43
2018-03-01T06:37:21.335Z,16.23
2018-03-01T06:39:49.196Z,26.57
2018-03-01T06:42:17.092Z,29.43
2018-03-01T06:44:45.055Z,19.33
2018-03-01T06:47:12.933Z,20.87
2018-03-01T06:49:40.879Z,18.48
2018-03-01T06:52:08.803Z,16.83
2018-03-01T06:54:36.684Z,20.70
2018-03-01T06:57:04.617Z,19.23
2018-03-01T06:59:32.597Z,14.63
2018-03-01T07:02:00.491Z,22.40
2018-03-01T07:04:28.399Z,23.17
2018-03-01T07:06:56.272Z,13.77
2018-03-01T07:09:24.161Z,24.70
2018-03-01T07:11:52.065Z,24.20
2018-03-01T07:14:19.932Z,20.63
2018-03-01T07:16:47.791Z,19.43
2018-03-01T07:19:16.088Z,22.90
2018-03-01T07:21:44.420Z,12.57
2018-03-01T07:24:12.505Z,15.33
2018-03-01T07:26:40.449Z,28.33
2018-03-01T07:29:08.380Z,14.60
2018-03-01T07:31:36.253Z,20.63
2018-03-01T07:34:04.223Z,23.10
2018-03-01T07:36:32.079Z,16.40
2018-03-01T07:39:00.016Z,20.17
2018-03-01T07:41:27.962Z,13.73
2018-03-01T07:43:55.803Z,27.70
2018-03-01T07:46:23.661Z,17.20
2018-03-01T07:48:51.572Z,23.20
2018-03-01T07:51:19.499Z,21.47
2018-03-01T07:53:47.372Z,27.30
2018-03-01T07:56:15.276Z,27.63
2018-03-01T07:58:43.229Z,18.93
2018-03-01T08:01:09.434Z,20.33
2018-03-01T08:03:35.584Z,35.23
2018-03-01T08:06:01.738Z,17.83
2018-03-01T08:08:27.991Z,27.23
2018-03-01T08:10:54.923Z,34.10
2018-03-01T08:13:22.788Z,26.57
2018-03-01T08:15:50.672Z,16.80
2018-03-01T08:18:18.567Z,26.60
2018-03-01T08:20:46.439Z,20.80
2018-03-01T08:23:14.307Z,24.87
2018-03-01T08:25:42.224Z,22.97
2018-03-01T08:28:10.092Z,24.60
2018-03-01T08:30:37.956Z,22.13
2018-03-01T08:33:05.926Z,23.10
2018-03-01T08:35:33.822Z,22.43
2018-03-01T08:38:01.709Z,23.60
2018-03-01T08:40:29.613Z,24.03
2018-03-01T08:42:57.517Z,21.03
2018-03-01T08:45:25.494Z,27.03
2018-03-01T08:47:53.379Z,23.40
2018-03-01T08:50:21.216Z,25.50
2018-03-01T08:52:49.088Z,27.60
2018-03-01T08:55:16.959Z,20.63
2018-03-01T08:57:44.815Z,30.10
2018-03-01T09:00:12.701Z,26.83
2018-03-01T09:02:40.618Z,27.13
2018-03-01T09:05:08.520Z,24.60
2018-03-01T09:07:36.440Z,26.43
2018-03-01T09:10:04.352Z,23.10
2018-03-01T09:12:32.225Z,25.40
2018-03-01T09:15:00.100Z,27.77
2018-03-01T09:17:27.996Z,27.40
2018-03-01T09:19:55.927Z,33.50
2018-03-01T09:22:23.906Z,24.13
2018-03-01T09:24:51.831Z,27.60
2018-03-01T09:27:19.702Z,19.47
2018-03-01T09:29:47.586Z,27.27
2018-03-01T09:32:15.484Z,29.43
2018-03-01T09:34:43.380Z,26.30
2018-03-01T09:37:11.270Z,21.90
2018-03-01T09:39:39.147Z,23.00
2018-03-01T09:42:06.993Z,24.30
2018-03-01T09:44:34.857Z,23.80
2018-03-01T09:47:01.054Z,22.33
2018-03-01T09:49:28.959Z,27.60
2018-03-01T09:51:56.855Z,24.30
2018-03-01T09:54:24.750Z,20.63
2018-03-01T09:56:52.597Z,25.33
2018-03-01T09:59:20.450Z,24.83
2018-03-01T10:01:48.414Z,28.67
2018-03-01T10:04:16.312Z,31.03
2018-03-01T10:06:44.252Z,27.37
2018-03-01T10:09:12.129Z,27.60
2018-03-01T10:11:39.982Z,27.30
2018-03-01T10:14:07.878Z,26.90
2018-03-01T10:16:35.738Z,31.73
2018-03-01T10:19:03.649Z,22.60
2018-03-01T10:21:31.532Z,25.07
2018-03-01T10:23:59.408Z,25.57
2018-03-01T10:26:27.385Z,29.50
2018-03-01T10:28:55.245Z,25.93
2018-03-01T10:31:23.146Z,26.50
2018-03-01T10:33:51.014Z,22.97
2018-03-01T10:36:18.876Z,17.97
2018-03-01T10:38:46.816Z,21.37
2018-03-01T10:41:14.685Z,25.63
2018-03-01T10:43:42.577Z,23.03
2018-03-01T10:46:10.541Z,23.17
2018-03-01T10:48:38.393Z,25.63
2018-03-01T10:51:06.393Z,23.40
2018-03-01T10:53:34.305Z,26.40
2018-03-01T10:56:02.280Z,24.53
2018-03-01T10:58:30.164Z,31.23
2018-03-01T11:00:58.947Z,28.00
2018-03-01T11:03:26.869Z,28.47
2018-03-01T11:05:54.740Z,22.10
2018-03-01T11:08:21.091Z,25.87
2018-03-01T11:10:47.252Z,26.43
2018-03-01T11:13:15.112Z,26.70
2018-03-01T11:15:41.231Z,24.17
2018-03-01T11:18:07.356Z,19.70
2018-03-01T11:20:35.292Z,26.33
2018-03-01T11:23:03.268Z,17.93
2018-03-01T11:25:31.211Z,25.50
2018-03-01T11:27:59.108Z,25.57
2018-03-01T11:30:25.254Z,24.67
2018-03-01T11:32:53.165Z,19.30
2018-03-01T11:35:19.265Z,28.43
2018-03-01T11:37:45.376Z,19.03
2018-03-01T11:40:12.240Z,18.73
2018-03-01T11:42:38.415Z,18.90
2018-03-01T11:45:04.545Z,19.33
2018-03-01T11:47:30.739Z,20.50
2018-03-01T11:49:58.597Z,21.93
2018-03-01T11:52:26.476Z,21.90
2018-03-01T11:54:54.408Z,19.00
2018-03-01T11:57:22.321Z,23.60
2018-03-01T11:59:50.170Z,24.03
2018-03-01T12:02:18.104Z,24.10
2018-03-01T12:04:44.210Z,24.33
2018-03-01T12:07:10.351Z,19.80
2018-03-01T12:09:36.508Z,24.97
2018-03-01T12:12:02.653Z,23.80
2018-03-01T12:14:28.823Z,20.00
2018-03-01T12:16:55.713Z,22.00
2018-03-01T12:19:21.861Z,30.60
2018-03-01T12:21:47.968Z,17.03
2018-03-01T12:24:14.117Z,27.10
2018-03-01T12:26:40.238Z,24.70
2018-03-01T12:29:07.072Z,25.33
2018-03-01T12:31:34.341Z,23.97
2018-03-01T12:34:00.623Z,27.83
2018-03-01T12:36:26.758Z,27.13
2018-03-01T12:38:52.903Z,27.50
2018-03-01T12:41:19.102Z,26.30
2018-03-01T12:43:46.017Z,28.57
2018-03-01T12:46:12.139Z,26.90
2018-03-01T12:48:38.256Z,24.13
2018-03-01T12:51:06.140Z,28.23
2018-03-01T12:53:35.158Z,32.20
2018-03-01T12:56:01.474Z,23.00
2018-03-01T12:58:29.364Z,22.07
2018-03-01T13:00:57.284Z,20.53
2018-03-01T13:03:25.286Z,26.43
2018-03-01T13:05:51.434Z,20.90
2018-03-01T13:08:19.346Z,18.47
2018-03-01T13:10:47.253Z,24.57
2018-03-01T13:13:15.119Z,24.20
2018-03-01T13:15:43.007Z,24.70
2018-03-01T13:18:10.884Z,18.80
2018-03-01T13:20:38.773Z,21.50
2018-03-01T13:23:06.637Z,27.80
2018-03-01T13:25:34.541Z,30.37
2018-03-01T13:28:02.598Z,16.47
2018-03-01T13:30:31.585Z,17.97
2018-03-01T13:36:07.024Z,21.10
2018-03-01T13:38:33.445Z,24.83
2018-03-01T13:41:01.330Z,26.47
2018-03-01T13:43:30.758Z,27.27
2018-03-01T13:46:12.732Z,26.50
2018-03-01T13:48:38.861Z,19.83
2018-03-01T13:51:05.747Z,20.53
2018-03-01T13:53:32.008Z,22.00
2018-03-01T13:55:58.165Z,24.90
2018-03-01T13:58:24.345Z,24.73
2018-03-01T14:00:51.225Z,22.90
2018-03-01T14:03:17.325Z,22.33
2018-03-01T14:08:55.645Z,21.80
2018-03-01T14:11:21.847Z,23.43
2018-03-01T14:13:47.943Z,22.90
2018-03-01T14:16:15.809Z,25.03
2018-03-01T14:18:44.661Z,28.93
2018-03-01T14:21:14.501Z,24.37
2018-03-01T14:23:58.491Z,21.43
2018-03-01T14:26:27.308Z,24.10
2018-03-01T14:28:58.182Z,24.40
2018-03-01T14:31:26.148Z,23.10
2018-03-01T14:33:54.020Z,22.27
2018-03-01T14:36:21.973Z,32.80
2018-03-01T14:38:49.996Z,23.70
2018-03-01T14:41:17.970Z,21.00
2018-03-01T14:43:46.107Z,26.80
2018-03-01T14:46:14.080Z,29.73
2018-03-01T14:48:42.387Z,26.43
2018-03-01T14:51:10.320Z,23.70
2018-03-01T14:53:38.247Z,21.17
2018-03-01T14:56:06.122Z,28.83
2018-03-01T14:58:34.036Z,20.23
2018-03-01T15:01:00.974Z,20.17
2018-03-01T15:03:27.431Z,21.90
2018-03-01T15:05:54.005Z,27.03
2018-03-01T15:08:20.116Z,24.90
2018-03-01T15:10:47.006Z,17.67
2018-03-01T15:13:13.426Z,33.90
2018-03-01T15:15:40.445Z,23.13
2018-03-01T15:18:06.561Z,24.00
2018-03-01T15:20:32.991Z,21.53
2018-03-01T15:22:59.711Z,25.67
2018-03-01T15:25:25.898Z,23.87
2018-03-01T15:27:52.482Z,26.10
2018-03-01T15:30:18.608Z,25.57
2018-03-01T15:32:44.784Z,26.53
2018-03-01T15:35:10.929Z,28.10
2018-03-01T15:37:37.149Z,28.23
2018-03-01T15:40:03.242Z,24.90
2018-03-01T15:42:29.392Z,31.73
2018-03-01T15:44:55.540Z,23.27
2018-03-01T15:47:21.592Z,19.20
2018-03-01T15:49:48.640Z,22.53
2018-03-01T15:52:14.749Z,21.07
2018-03-01T15:54:40.846Z,22.83
2018-03-01T15:57:07.718Z,26.90
2018-03-01T15:59:33.818Z,33.80
2018-03-01T16:02:01.042Z,20.90
2018-03-01T16:04:27.233Z,17.97
2018-03-01T16:06:54.077Z,35.33
2018-03-01T16:09:20.661Z,16.57
2018-03-01T16:11:46.798Z,21.83
2018-03-01T16:14:13.422Z,29.20
2018-03-01T16:16:40.472Z,19.10
2018-03-01T16:19:07.360Z,21.37
2018-03-01T16:21:33.554Z,25.50
2018-03-01T16:24:00.453Z,27.17
2018-03-01T16:26:26.664Z,28.73
2018-03-01T16:28:52.790Z,29.60
2018-03-01T16:31:18.951Z,28.70
2018-03-01T16:33:45.128Z,28.17
2018-03-01T16:36:11.336Z,18.97
2018-03-01T16:38:38.170Z,24.07
2018-03-01T16:41:04.326Z,25.87
2018-03-01T16:43:31.171Z,28.10
2018-03-01T16:45:57.352Z,28.73
2018-03-01T16:48:23.516Z,30.83
2018-03-01T16:50:49.629Z,37.53
2018-03-01T16:53:15.710Z,30.57
2018-03-01T16:55:41.851Z,27.20
2018-03-01T16:58:07.963Z,31.07
2018-03-01T17:00:34.105Z,28.43
2018-03-01T17:03:00.464Z,37.77
2018-03-01T17:05:26.603Z,38.40
2018-03-01T17:07:52.769Z,28.87
2018-03-01T17:10:19.671Z,30.27
2018-03-01T17:12:45.777Z,39.97
2018-03-01T17:15:12.665Z,39.70
2018-03-01T17:17:38.750Z,38.73
2018-03-01T17:20:04.878Z,38.43
2018-03-01T17:22:30.971Z,36.57
2018-03-01T17:24:57.072Z,40.20
2018-03-01T17:27:23.948Z,31.30
2018-03-01T17:29:50.108Z,36.53
2018-03-01T17:32:16.231Z,39.50
2018-03-01T17:34:42.415Z,27.43
2018-03-01T17:37:08.546Z,36.40
2018-03-01T17:39:36.738Z,34.27
2018-03-01T17:42:02.838Z,47.73
2018-03-01T17:44:28.984Z,55.17
2018-03-01T17:46:55.289Z,37.83
2018-03-01T17:49:21.442Z,45.20
2018-03-01T17:51:47.580Z,64.90
2018-03-01T17:54:13.685Z,40.33
2018-03-01T17:56:39.856Z,46.27
2018-03-01T17:59:06.810Z,34.67
2018-03-01T18:01:32.950Z,88.37
2018-03-01T18:03:59.784Z,30.20
2018-03-01T18:06:25.895Z,40.87
2018-03-01T18:08:52.134Z,37.77
2018-03-01T18:11:18.275Z,38.33
2018-03-01T18:13:44.414Z,39.73
2018-03-01T18:16:10.671Z,63.27
2018-03-01T18:18:36.862Z,32.87
2018-03-01T18:21:03.117Z,24.30
2018-03-01T18:23:29.288Z,34.73
2018-03-01T18:25:55.390Z,25.43
2018-03-01T18:28:21.605Z,30.70
2018-03-01T18:30:47.716Z,33.53
2018-03-01T18:33:13.869Z,25.83
2018-03-01T18:35:40.964Z,37.10
2018-03-01T18:38:07.114Z,23.53
2018-03-01T18:40:33.304Z,34.33
2018-03-01T18:43:00.162Z,29.20
2018-03-01T18:45:26.381Z,20.03
2018-03-01T18:47:52.578Z,28.70
2018-03-01T18:50:19.002Z,27.97
2018-03-01T18:52:45.094Z,26.53
2018-03-01T18:55:11.256Z,23.87
2018-03-01T18:57:37.398Z,15.90
2018-03-01T19:00:03.514Z,20.37
2018-03-01T19:02:29.951Z,31.27
2018-03-01T19:04:56.076Z,24.83
2018-03-01T19:07:22.159Z,22.80
2018-03-01T19:09:49.049Z,26.43
2018-03-01T19:12:15.179Z,27.30
2018-03-01T19:14:41.330Z,31.13
2018-03-01T19:17:07.484Z,30.47
2018-03-01T19:19:33.638Z,22.23
2018-03-01T19:21:59.747Z,27.70
2018-03-01T19:24:25.906Z,21.03
2018-03-01T19:26:52.161Z,25.83
2018-03-01T19:29:18.256Z,33.70
2018-03-01T19:31:44.460Z,33.63
2018-03-01T19:34:11.430Z,34.10
2018-03-01T19:36:38.309Z,22.67
2018-03-01T19:39:04.562Z,27.17
2018-03-01T19:41:32.495Z,28.00
2018-03-01T19:44:00.458Z,16.70
2018-03-01T19:46:28.988Z,28.03
2018-03-01T19:48:55.826Z,30.90
2018-03-01T19:51:22.796Z,28.40
2018-03-01T19:53:49.092Z,33.03
2018-03-01T19:56:15.425Z,30.17
2018-03-01T19:58:41.593Z,22.03
2018-03-01T20:01:07.790Z,29.27
2018-03-01T20:03:34.025Z,30.33
2018-03-01T20:06:00.248Z,21.77
2018-03-01T20:08:26.495Z,26.70
2018-03-01T20:10:52.804Z,26.30
2018-03-01T20:13:19.014Z,27.57
2018-03-01T20:15:46.200Z,23.17
2018-03-01T20:18:12.508Z,19.33
2018-03-01T20:20:38.759Z,32.40
2018-03-01T20:23:05.930Z,32.00
2018-03-01T20:25:32.215Z,21.10
2018-03-01T20:27:58.532Z,28.57
2018-03-01T20:30:25.497Z,19.00
2018-03-01T20:32:51.661Z,27.70
2018-03-01T20:35:17.866Z,27.83
2018-03-01T20:37:44.094Z,20.90
2018-03-01T20:40:10.275Z,34.07
2018-03-01T20:42:37.296Z,32.60
2018-03-01T20:45:03.491Z,29.37
2018-03-01T20:47:29.743Z,30.43
2018-03-01T20:49:55.882Z,31.03
2018-03-01T20:52:22.012Z,31.93
2018-03-01T20:54:48.128Z,24.40
2018-03-01T20:57:14.292Z,32.00
2018-03-01T20:59:40.655Z,25.30
2018-03-01T21:02:06.919Z,31.47
2018-03-01T21:04:33.875Z,21.90
2018-03-01T21:06:59.992Z,34.27
2018-03-01T21:09:26.800Z,31.30
2018-03-01T21:11:53.657Z,34.00
2018-03-01T21:14:20.499Z,36.50
2018-03-01T21:16:46.617Z,28.63
2018-03-01T21:19:12.817Z,13.00
2018-03-01T21:21:38.926Z,25.20
2018-03-01T21:24:05.070Z,20.30
2018-03-01T21:26:31.217Z,30.43
2018-03-01T21:28:57.353Z,37.80
2018-03-01T21:31:23.513Z,29.70
2018-03-01T21:33:49.608Z,34.30
2018-03-01T21:36:15.779Z,36.07
2018-03-01T21:38:41.922Z,32.13
2018-03-01T21:41:08.068Z,27.80
2018-03-01T21:43:34.197Z,34.87
2018-03-01T21:46:00.357Z,35.27
2018-03-01T21:48:26.487Z,33.20
2018-03-01T21:50:52.604Z,32.43
2018-03-01T21:53:18.703Z,35.27
2018-03-01T21:55:44.795Z,30.90
2018-03-01T21:58:11.172Z,34.30
2018-03-01T22:00:38.560Z,40.73
2018-03-01T22:03:05.407Z,32.40
2018-03-01T22:05:31.540Z,42.17
2018-03-01T22:07:58.098Z,34.23
2018-03-01T22:10:24.217Z,26.60
2018-03-01T22:12:50.461Z,32.97
2018-03-01T22:15:16.657Z,22.83
2018-03-01T22:17:42.899Z,37.23
2018-03-01T22:20:09.856Z,30.57
2018-03-01T22:22:36.455Z,18.00
2018-03-01T22:25:02.633Z,28.37
2018-03-01T22:27:28.733Z,30.17
2018-03-01T22:29:54.889Z,35.07
2018-03-01T22:32:21.025Z,36.53
2018-03-01T22:34:47.911Z,25.87
2018-03-01T22:37:14.024Z,30.57
2018-03-01T22:39:40.886Z,40.40
2018-03-01T22:42:07.778Z,30.47
2018-03-01T22:44:33.908Z,27.90
2018-03-01T22:47:00.015Z,27.40
2018-03-01T22:49:26.194Z,36.00
2018-03-01T22:51:52.331Z,32.93
2018-03-01T22:54:18.427Z,29.17
2018-03-01T22:56:44.615Z,40.23
2018-03-01T22:59:10.715Z,32.13
2018-03-01T23:01:37.555Z,26.97
2018-03-01T23:04:04.528Z,27.87
2018-03-01T23:06:30.623Z,29.80
2018-03-01T23:08:56.736Z,27.23
2018-03-01T23:11:22.948Z,29.23
2018-03-01T23:13:49.111Z,28.20
2018-03-01T23:16:15.284Z,31.67
2018-03-01T23:18:41.385Z,20.03
2018-03-01T23:21:07.844Z,29.87
2018-03-01T23:23:33.946Z,29.60
2018-03-01T23:26:00.815Z,35.33
2018-03-01T23:28:27.025Z,26.97
2018-03-01T23:30:53.898Z,37.60
2018-03-01T23:33:20.252Z,37.40
2018-03-01T23:35:46.333Z,29.43
2018-03-01T23:38:12.411Z,30.53
2018-03-01T23:40:39.461Z,37.97
2018-03-01T23:43:06.527Z,37.07
2018-03-01T23:45:32.669Z,34.53
2018-03-01T23:47:59.532Z,30.63
2018-03-01T23:50:25.623Z,27.53
2018-03-01T23:52:51.715Z,27.00
2018-03-01T23:55:17.854Z,31.93
2018-03-01T23:57:44.142Z,40.93
